createdAt,value
2022-09-07T00:01:10.350Z,73.23
2022-09-07T00:03:41.271Z,73.45
2022-09-07T00:06:14.049Z,73.74
2022-09-07T00:08:43.767Z,74.14
2022-09-07T00:11:14.389Z,73.70
2022-09-07T00:13:43.726Z,73.92
2022-09-07T00:16:15.090Z,74.40
2022-09-07T00:18:57.247Z,74.10
2022-09-07T00:21:31.257Z,74.45
2022-09-07T00:24:04.218Z,75.48
2022-09-07T00:26:33.729Z,74.70
2022-09-07T00:29:03.202Z,75.12
2022-09-07T00:31:33.033Z,74.30
2022-09-07T00:34:03.094Z,74.22
2022-09-07T00:36:33.858Z,74.69
2022-09-07T00:39:02.727Z,74.68
2022-09-07T00:41:32.319Z,74.61
2022-09-07T00:44:22.312Z,74.67
2022-09-07T00:46:51.826Z,75.40
2022-09-07T00:49:23.203Z,75.59
2022-09-07T00:51:56.139Z,75.49
2022-09-07T00:54:27.599Z,75.43
2022-09-07T00:56:57.403Z,75.31
2022-09-07T00:59:28.428Z,76.03
2022-09-07T01:01:58.186Z,76.08
2022-09-07T01:04:27.048Z,77.48
2022-09-07T01:06:57.994Z,76.43
2022-09-07T01:09:27.182Z,76.10
2022-09-07T01:11:59.477Z,76.58
2022-09-07T01:14:29.959Z,77.19
2022-09-07T01:17:05.185Z,76.83
2022-09-07T01:20:06.524Z,76.42
2022-09-07T01:22:52.482Z,76.97
2022-09-07T01:25:30.027Z,76.68
2022-09-07T01:28:12.008Z,76.91
2022-09-07T01:30:43.942Z,77.38
2022-09-07T01:33:28.503Z,77.20
2022-09-07T01:36:02.369Z,77.80
2022-09-07T01:38:33.131Z,78.58
2022-09-07T01:41:04.548Z,78.70
2022-09-07T01:43:38.691Z,78.58
2022-09-07T01:46:13.467Z,77.95
2022-09-07T01:48:43.844Z,78.41
2022-09-07T01:51:14.740Z,78.40
2022-09-07T01:53:45.910Z,78.86
2022-09-07T01:56:18.133Z,78.55
2022-09-07T01:58:51.961Z,78.14
2022-09-07T02:01:25.647Z,78.46
2022-09-07T02:03:58.564Z,78.85
2022-09-07T02:06:36.405Z,79.26
2022-09-07T02:09:07.239Z,79.00
2022-09-07T02:11:39.856Z,78.86
2022-09-07T02:14:12.066Z,79.85
2022-09-07T02:16:44.570Z,80.33
2022-09-07T02:19:17.776Z,79.71
2022-09-07T02:21:49.729Z,79.73
2022-09-07T02:24:23.623Z,78.81
2022-09-07T02:26:53.294Z,79.60
2022-09-07T02:29:23.006Z,80.18
2022-09-07T02:31:52.204Z,80.24
2022-09-07T02:34:21.387Z,80.13
2022-09-07T02:36:50.855Z,80.21
2022-09-07T02:39:19.502Z,80.10
2022-09-07T02:41:48.338Z,81.09
2022-09-07T02:44:20.499Z,80.93
2022-09-07T02:47:08.604Z,81.14
2022-09-07T02:49:52.388Z,81.15
2022-09-07T02:52:27.142Z,81.50
2022-09-07T02:55:03.708Z,81.68
2022-09-07T02:57:38.034Z,81.36
2022-09-07T03:00:11.206Z,81.72
2022-09-07T03:02:58.975Z,81.82
2022-09-07T03:05:31.831Z,82.14
2022-09-07T03:08:02.456Z,82.63
2022-09-07T03:10:32.002Z,81.80
2022-09-07T03:13:00.341Z,83.17
2022-09-07T03:15:29.545Z,82.22
2022-09-07T03:17:59.261Z,81.76
2022-09-07T03:20:28.084Z,82.20
2022-09-07T03:22:56.231Z,82.23
2022-09-07T03:25:25.533Z,82.09
2022-09-07T03:27:53.699Z,82.36
2022-09-07T03:30:22.147Z,82.47
2022-09-07T03:32:50.280Z,82.24
2022-09-07T03:35:21.009Z,82.68
2022-09-07T03:37:49.246Z,82.93
2022-09-07T03:40:18.472Z,84.08
2022-09-07T03:42:49.805Z,84.87
2022-09-07T03:45:18.548Z,84.32
2022-09-07T03:47:46.702Z,84.04
2022-09-07T03:50:15.008Z,84.84
2022-09-07T03:52:44.698Z,84.82
2022-09-07T03:55:15.316Z,84.90
2022-09-07T03:57:44.038Z,84.66
2022-09-07T04:00:14.735Z,84.88
2022-09-07T04:02:43.279Z,85.74
2022-09-07T04:05:12.868Z,85.30
2022-09-07T04:07:41.414Z,85.14
2022-09-07T04:10:12.494Z,83.47
2022-09-07T04:12:40.942Z,84.27
2022-09-07T04:15:11.266Z,83.78
2022-09-07T04:17:39.873Z,84.53
2022-09-07T04:20:09.476Z,85.07
2022-09-07T04:22:38.226Z,84.78
2022-09-07T04:25:07.447Z,84.90
2022-09-07T04:27:40.153Z,84.86
2022-09-07T04:30:10.775Z,84.67
2022-09-07T04:32:39.295Z,85.55
2022-09-07T04:35:09.590Z,84.45
2022-09-07T04:37:37.964Z,84.61
2022-09-07T04:40:07.995Z,85.53
2022-09-07T04:42:38.154Z,85.78
2022-09-07T04:45:07.469Z,85.27
2022-09-07T04:47:36.010Z,85.24
2022-09-07T04:50:06.658Z,84.74
2022-09-07T04:52:35.319Z,84.99
2022-09-07T04:55:04.318Z,84.75
2022-09-07T04:57:33.066Z,85.47
2022-09-07T05:00:03.241Z,84.78
2022-09-07T05:02:32.037Z,84.94
2022-09-07T05:05:02.727Z,84.18
2022-09-07T05:07:32.225Z,84.44
2022-09-07T05:10:00.993Z,84.79
2022-09-07T05:12:33.764Z,84.50
2022-09-07T05:15:15.885Z,84.10
2022-09-07T05:17:44.379Z,84.54
2022-09-07T05:20:16.300Z,83.63
2022-09-07T05:22:47.356Z,84.10
2022-09-07T05:25:16.517Z,84.00
2022-09-07T05:27:44.961Z,83.48
2022-09-07T05:33:09.346Z,83.57
2022-09-07T05:35:39.786Z,83.35
2022-09-07T05:38:08.376Z,82.76
2022-09-07T05:40:40.496Z,82.96
2022-09-07T05:43:10.498Z,82.42
2022-09-07T05:45:40.362Z,82.39
2022-09-07T05:48:08.900Z,82.05
2022-09-07T05:50:40.725Z,82.54
2022-09-07T05:53:09.341Z,81.49
2022-09-07T05:55:41.259Z,80.74
2022-09-07T05:58:09.708Z,81.42
2022-09-07T06:00:41.243Z,81.01
2022-09-07T06:03:09.789Z,80.92
2022-09-07T06:05:39.876Z,80.24
2022-09-07T06:08:09.492Z,81.86
2022-09-07T06:13:11.117Z,81.13
2022-09-07T06:15:43.279Z,80.76
2022-09-07T06:18:12.546Z,80.03
2022-09-07T06:20:41.343Z,79.62
2022-09-07T06:23:10.800Z,78.70
2022-09-07T06:25:46.105Z,78.67
2022-09-07T06:28:15.631Z,79.07
2022-09-07T06:30:46.814Z,79.12
2022-09-07T06:33:19.563Z,80.55
2022-09-07T06:35:56.584Z,79.47
2022-09-07T06:38:31.251Z,78.37
2022-09-07T06:43:54.882Z,77.94
2022-09-07T06:49:23.544Z,77.61
2022-09-07T06:51:52.453Z,76.90
2022-09-07T06:57:11.259Z,77.26
2022-09-07T06:59:39.745Z,77.64
2022-09-07T07:02:11.640Z,78.03
2022-09-07T07:04:41.272Z,77.46
2022-09-07T07:07:11.896Z,77.34
2022-09-07T07:09:41.574Z,76.40
2022-09-07T07:12:10.892Z,75.92
2022-09-07T07:14:44.944Z,76.34
2022-09-07T07:17:18.599Z,75.99
2022-09-07T07:19:47.393Z,75.74
2022-09-07T07:22:43.054Z,75.04
2022-09-07T07:25:09.034Z,73.73
2022-09-07T07:27:39.134Z,75.12
2022-09-07T07:30:09.463Z,74.57
2022-09-07T07:32:40.620Z,74.94
2022-09-07T07:35:10.200Z,74.54
2022-09-07T07:37:41.630Z,75.06
2022-09-07T07:42:49.192Z,74.47
2022-09-07T07:48:14.522Z,74.16
2022-09-07T07:50:44.216Z,73.70
2022-09-07T07:56:03.052Z,72.96
2022-09-07T07:58:37.104Z,72.60
2022-09-07T08:01:08.106Z,72.36
2022-09-07T08:03:41.529Z,71.88
2022-09-07T08:06:11.868Z,71.63
2022-09-07T08:08:41.159Z,71.33
2022-09-07T08:11:11.106Z,71.23
2022-09-07T08:13:41.278Z,70.72
2022-09-07T08:16:13.679Z,70.89
2022-09-07T08:18:49.908Z,70.99
2022-09-07T08:21:19.224Z,70.74
2022-09-07T08:23:48.465Z,70.70
2022-09-07T08:26:17.722Z,70.37
2022-09-07T08:28:47.957Z,70.03
2022-09-07T08:31:20.387Z,70.42
2022-09-07T08:33:50.893Z,69.37
2022-09-07T08:36:21.146Z,69.10
2022-09-07T08:38:49.800Z,69.87
2022-09-07T08:41:40.697Z,69.23
2022-09-07T08:44:14.097Z,68.78
2022-09-07T08:46:49.259Z,68.14
2022-09-07T08:49:25.773Z,67.58
2022-09-07T08:51:59.738Z,67.17
2022-09-07T08:54:31.051Z,67.61
2022-09-07T08:59:58.823Z,66.45
2022-09-07T09:02:28.893Z,66.37
2022-09-07T09:05:18.349Z,65.58
2022-09-07T09:07:54.367Z,64.95
2022-09-07T09:10:34.482Z,65.26
2022-09-07T09:13:07.852Z,64.45
2022-09-07T09:15:51.876Z,64.11
2022-09-07T09:18:30.088Z,63.53
2022-09-07T09:21:03.362Z,63.88
2022-09-07T09:23:36.414Z,63.29
2022-09-07T09:26:12.117Z,63.17
2022-09-07T09:28:41.301Z,63.34
2022-09-07T09:31:19.645Z,62.96
2022-09-07T09:34:10.551Z,62.02
2022-09-07T09:36:46.290Z,61.59
2022-09-07T09:39:34.069Z,61.35
2022-09-07T09:42:16.720Z,60.92
2022-09-07T09:44:48.720Z,60.73
2022-09-07T09:47:30.404Z,60.27
2022-09-07T09:50:01.046Z,59.35
2022-09-07T09:52:44.947Z,59.81
2022-09-07T09:55:35.402Z,59.30
2022-09-07T10:03:56.662Z,59.30
2022-09-07T10:06:26.839Z,58.69
2022-09-07T10:08:59.819Z,58.95
2022-09-07T10:14:40.652Z,58.54
2022-09-07T10:17:14.603Z,57.93
2022-09-07T10:19:45.223Z,57.40
2022-09-07T10:22:28.265Z,56.84
2022-09-07T10:25:00.974Z,57.07
2022-09-07T10:27:34.942Z,56.43
2022-09-07T10:30:08.342Z,56.64
2022-09-07T10:32:48.097Z,57.47
2022-09-07T10:35:22.131Z,56.98
2022-09-07T10:38:07.452Z,56.47
2022-09-07T10:40:44.554Z,56.62
2022-09-07T10:43:21.520Z,56.41
2022-09-07T10:46:08.126Z,55.62
2022-09-07T10:48:43.710Z,55.51
2022-09-07T10:51:18.040Z,55.50
2022-09-07T10:54:29.988Z,55.63
2022-09-07T10:56:51.991Z,54.51
2022-09-07T11:02:30.998Z,53.59
2022-09-07T11:05:05.515Z,53.67
2022-09-07T11:07:57.075Z,52.91
2022-09-07T11:10:37.491Z,52.93
2022-09-07T11:13:11.043Z,52.21
2022-09-07T11:15:44.030Z,51.96
2022-09-07T11:18:16.913Z,52.01
2022-09-07T11:20:50.767Z,52.99
2022-09-07T11:23:25.127Z,52.97
2022-09-07T11:26:00.269Z,52.35
2022-09-07T11:28:38.768Z,52.74
2022-09-07T11:31:18.256Z,52.94
2022-09-07T11:36:46.353Z,51.66
2022-09-07T11:39:18.967Z,51.02
2022-09-07T11:41:51.483Z,51.31
2022-09-07T11:44:26.289Z,51.17
2022-09-07T11:46:58.014Z,51.06
2022-09-07T11:49:27.986Z,50.41
2022-09-07T11:52:04.961Z,50.15
2022-09-07T11:54:43.969Z,48.51
2022-09-07T11:57:25.168Z,48.75
2022-09-07T12:00:03.226Z,48.89
2022-09-07T12:03:01.865Z,47.46
2022-09-07T12:05:44.277Z,46.63
2022-09-07T12:08:19.278Z,46.96
2022-09-07T12:11:03.141Z,46.92
2022-09-07T12:14:02.117Z,46.58
2022-09-07T12:16:41.704Z,46.01
2022-09-07T12:19:19.034Z,46.00
2022-09-07T12:21:50.507Z,45.27
2022-09-07T12:24:38.727Z,44.63
2022-09-07T12:27:11.697Z,45.41
2022-09-07T12:29:45.282Z,45.30
2022-09-07T12:32:54.202Z,44.89
2022-09-07T12:35:39.063Z,45.19
2022-09-07T12:38:42.292Z,44.26
2022-09-07T12:41:23.236Z,43.51
2022-09-07T12:44:08.275Z,43.00
2022-09-07T12:46:52.389Z,43.01
2022-09-07T12:49:55.277Z,42.07
2022-09-07T12:53:06.021Z,42.53
2022-09-07T12:58:49.367Z,42.87
2022-09-07T13:01:31.652Z,42.55
2022-09-07T13:04:13.541Z,41.85
2022-09-07T13:07:02.630Z,41.70
2022-09-07T13:09:34.670Z,41.35
2022-09-07T13:12:07.229Z,41.16
2022-09-07T13:14:38.527Z,41.71
2022-09-07T13:17:29.543Z,40.88
2022-09-07T13:20:30.269Z,40.29
2022-09-07T13:23:18.382Z,40.57
2022-09-07T13:25:56.006Z,39.95
2022-09-07T13:28:28.811Z,39.94
2022-09-07T13:31:07.242Z,39.74
2022-09-07T13:33:48.751Z,39.77
2022-09-07T13:36:38.748Z,39.96
2022-09-07T13:39:15.376Z,39.91
2022-09-07T13:41:49.041Z,39.80
2022-09-07T13:44:25.839Z,41.22
2022-09-07T13:47:14.962Z,41.00
2022-09-07T13:50:06.164Z,41.76
2022-09-07T13:52:47.307Z,41.21
2022-09-07T13:55:28.211Z,41.74
2022-09-07T13:58:09.870Z,41.96
2022-09-07T14:00:51.417Z,42.48
2022-09-07T14:03:21.567Z,41.83
2022-09-07T14:05:49.999Z,42.55
2022-09-07T14:08:30.115Z,42.67
2022-09-07T14:11:00.231Z,43.42
2022-09-07T14:13:29.998Z,42.71
2022-09-07T14:15:58.962Z,42.62
2022-09-07T14:18:32.265Z,42.67
2022-09-07T14:21:01.040Z,42.87
2022-09-07T14:23:32.111Z,42.81
2022-09-07T14:26:17.171Z,42.86
2022-09-07T14:28:48.944Z,43.05
2022-09-07T14:31:19.856Z,42.93
2022-09-07T14:33:52.505Z,42.51
2022-09-07T14:36:43.561Z,43.25
2022-09-07T14:39:13.395Z,43.39
2022-09-07T14:41:43.508Z,43.52
2022-09-07T14:44:31.836Z,43.37
2022-09-07T14:47:04.195Z,42.90
2022-09-07T14:49:33.673Z,43.12
2022-09-07T14:52:02.028Z,42.95
2022-09-07T14:54:33.081Z,43.03
2022-09-07T14:57:07.157Z,42.28
2022-09-07T14:59:42.507Z,42.46
2022-09-07T15:02:33.239Z,42.26
2022-09-07T15:05:20.619Z,42.37
2022-09-07T15:07:51.751Z,41.83
2022-09-07T15:10:41.329Z,42.10
2022-09-07T15:13:30.072Z,42.86
2022-09-07T15:16:01.336Z,43.07
2022-09-07T15:18:51.831Z,43.87
2022-09-07T15:21:21.301Z,43.98
2022-09-07T15:23:54.958Z,44.12
2022-09-07T15:29:17.185Z,44.45
2022-09-07T15:31:59.297Z,44.95
2022-09-07T15:34:32.484Z,44.59
2022-09-07T15:37:01.727Z,44.86
2022-09-07T15:39:34.503Z,45.18
2022-09-07T15:42:59.569Z,45.48
2022-09-07T15:44:54.229Z,45.85
2022-09-07T15:50:12.295Z,46.31
2022-09-07T15:52:40.755Z,46.57
2022-09-07T15:55:11.802Z,46.41
2022-09-07T15:57:56.706Z,46.50
2022-09-07T16:00:27.548Z,46.43
2022-09-07T16:03:04.828Z,46.80
2022-09-07T16:05:34.122Z,46.65
2022-09-07T16:10:55.196Z,47.80
2022-09-07T16:13:27.384Z,48.10
2022-09-07T16:15:59.984Z,48.99
2022-09-07T16:18:31.559Z,49.25
2022-09-07T16:21:05.841Z,49.70
2022-09-07T16:23:35.961Z,49.82
2022-09-07T16:26:07.417Z,49.87
2022-09-07T16:28:40.556Z,50.10
2022-09-07T16:31:14.044Z,49.88
2022-09-07T16:33:43.899Z,49.93
2022-09-07T16:36:13.353Z,50.31
2022-09-07T16:38:54.761Z,50.20
2022-09-07T16:41:26.750Z,50.39
2022-09-07T16:43:56.452Z,50.70
2022-09-07T16:46:28.307Z,50.62
2022-09-07T16:48:58.225Z,50.40
2022-09-07T16:51:27.412Z,50.88
2022-09-07T16:53:59.104Z,51.00
2022-09-07T16:56:29.881Z,50.52
2022-09-07T16:59:00.100Z,50.42
2022-09-07T17:01:32.476Z,50.36
2022-09-07T17:04:03.444Z,50.63
2022-09-07T17:06:36.205Z,50.84
2022-09-07T17:09:05.544Z,50.78
2022-09-07T17:11:38.899Z,50.78
2022-09-07T17:14:08.547Z,51.27
2022-09-07T17:16:41.958Z,51.46
2022-09-07T17:22:01.786Z,52.03
2022-09-07T17:24:32.193Z,52.89
2022-09-07T17:27:01.336Z,53.63
2022-09-07T17:29:33.053Z,54.01
2022-09-07T17:34:53.574Z,54.86
2022-09-07T17:37:21.708Z,55.76
2022-09-07T17:39:50.400Z,55.69
2022-09-07T17:42:20.108Z,56.03
2022-09-07T17:44:52.825Z,56.75
2022-09-07T17:47:23.938Z,56.91
2022-09-07T17:49:52.441Z,57.46
2022-09-07T17:52:21.426Z,57.96
2022-09-07T17:54:51.332Z,58.50
2022-09-07T17:57:20.472Z,58.78
2022-09-07T18:02:40.665Z,59.54
2022-09-07T18:05:09.778Z,59.97
2022-09-07T18:07:38.841Z,60.04
2022-09-07T18:10:09.202Z,60.49
2022-09-07T18:12:37.474Z,60.55
2022-09-07T18:15:07.458Z,60.82
2022-09-07T18:17:38.741Z,60.98
2022-09-07T18:20:10.644Z,61.10
2022-09-07T18:22:39.616Z,61.52
2022-09-07T18:25:10.409Z,61.62
2022-09-07T18:27:42.577Z,61.84
2022-09-07T18:30:14.357Z,61.92
2022-09-07T18:32:45.100Z,62.34
2022-09-07T18:37:45.493Z,62.63
2022-09-07T18:40:14.901Z,63.12
2022-09-07T18:42:44.705Z,63.03
2022-09-07T18:45:31.996Z,63.50
2022-09-07T18:48:01.968Z,63.30
2022-09-07T18:50:32.035Z,63.45
2022-09-07T18:53:15.875Z,63.84
2022-09-07T18:55:46.235Z,63.86
2022-09-07T18:58:16.990Z,64.00
2022-09-07T19:00:48.069Z,64.22
2022-09-07T19:03:19.868Z,64.45
2022-09-07T19:05:50.607Z,64.79
2022-09-07T19:08:20.882Z,65.08
2022-09-07T19:10:49.751Z,65.23
2022-09-07T19:13:18.774Z,65.03
2022-09-07T19:15:53.146Z,65.96
2022-09-07T19:18:22.812Z,65.88
2022-09-07T19:20:54.118Z,66.10
2022-09-07T19:23:23.814Z,66.85
2022-09-07T19:25:52.866Z,66.86
2022-09-07T19:28:22.136Z,67.08
2022-09-07T19:30:52.503Z,66.82
2022-09-07T19:33:23.025Z,67.78
2022-09-07T19:35:54.118Z,67.93
2022-09-07T19:38:24.799Z,68.39
2022-09-07T19:40:58.665Z,68.10
2022-09-07T19:43:28.259Z,68.38
2022-09-07T19:46:01.503Z,68.55
2022-09-07T19:48:32.212Z,69.16
2022-09-07T19:51:08.040Z,69.85
2022-09-07T19:53:43.195Z,69.58
2022-09-07T19:56:14.676Z,70.63
2022-09-07T19:58:45.303Z,70.87
2022-09-07T20:01:17.828Z,70.62
2022-09-07T20:03:55.002Z,70.86
2022-09-07T20:06:29.686Z,70.76
2022-09-07T20:08:58.852Z,71.61
2022-09-07T20:11:29.719Z,71.91
2022-09-07T20:13:58.765Z,72.16
2022-09-07T20:16:28.970Z,72.92
2022-09-07T20:18:58.860Z,73.60
2022-09-07T20:21:28.976Z,73.54
2022-09-07T20:23:58.818Z,73.54
2022-09-07T20:26:27.846Z,73.72
2022-09-07T20:29:16.774Z,74.02
2022-09-07T20:31:48.077Z,74.60
2022-09-07T20:34:17.693Z,73.96
2022-09-07T20:36:50.254Z,73.57
2022-09-07T20:39:20.469Z,73.65
2022-09-07T20:41:49.834Z,73.63
2022-09-07T20:44:19.802Z,72.58
2022-09-07T20:46:48.782Z,72.62
2022-09-07T20:49:18.336Z,72.41
2022-09-07T20:51:49.090Z,72.20
2022-09-07T20:54:19.160Z,72.10
2022-09-07T20:56:48.175Z,72.37
2022-09-07T20:59:17.563Z,71.33
2022-09-07T21:01:46.763Z,71.18
2022-09-07T21:04:16.774Z,71.35
2022-09-07T21:06:45.779Z,71.47
2022-09-07T21:09:16.906Z,71.79
2022-09-07T21:11:50.128Z,72.48
2022-09-07T21:14:24.213Z,72.20
2022-09-07T21:16:52.800Z,72.29
2022-09-07T21:19:22.559Z,72.28
2022-09-07T21:21:51.645Z,72.17
2022-09-07T21:24:23.348Z,72.17
2022-09-07T21:26:55.542Z,72.33
2022-09-07T21:29:26.682Z,72.64
2022-09-07T21:31:56.650Z,73.07
2022-09-07T21:34:25.642Z,73.14
2022-09-07T21:36:54.892Z,73.33
2022-09-07T21:39:25.023Z,72.88
2022-09-07T21:41:54.293Z,72.51
2022-09-07T21:44:23.726Z,72.91
2022-09-07T21:46:53.342Z,72.89
2022-09-07T21:49:21.608Z,73.40
2022-09-07T21:51:51.114Z,73.29
2022-09-07T21:54:19.899Z,73.13
2022-09-07T21:56:53.571Z,73.03
2022-09-07T21:59:24.914Z,73.41
2022-09-07T22:01:57.190Z,73.44
2022-09-07T22:04:32.468Z,73.39
2022-09-07T22:07:05.368Z,72.94
2022-09-07T22:09:34.859Z,74.00
2022-09-07T22:12:06.704Z,74.18
2022-09-07T22:14:38.519Z,73.92
2022-09-07T22:17:08.535Z,74.44
2022-09-07T22:19:42.527Z,74.48
2022-09-07T22:22:12.480Z,74.63
2022-09-07T22:24:40.736Z,75.32
2022-09-07T22:27:11.627Z,74.98
2022-09-07T22:29:40.215Z,75.36
2022-09-07T22:32:12.067Z,75.43
2022-09-07T22:34:40.533Z,75.89
2022-09-07T22:37:13.389Z,75.72
2022-09-07T22:39:41.880Z,75.28
2022-09-07T22:42:13.089Z,75.49
2022-09-07T22:44:44.527Z,75.48
2022-09-07T22:47:14.385Z,76.11
2022-09-07T22:49:42.614Z,76.48
2022-09-07T22:52:12.061Z,76.74
2022-09-07T22:54:42.875Z,76.45
2022-09-07T22:57:13.586Z,77.05
2022-09-07T22:59:43.705Z,76.71
2022-09-07T23:02:13.288Z,76.79
2022-09-07T23:04:41.959Z,76.51
2022-09-07T23:07:11.352Z,76.71
2022-09-07T23:09:39.918Z,77.04
2022-09-07T23:12:12.178Z,77.04
2022-09-07T23:14:46.451Z,77.10
2022-09-07T23:17:15.933Z,76.60
2022-09-07T23:19:44.743Z,77.82
2022-09-07T23:22:15.767Z,77.33
2022-09-07T23:24:48.643Z,77.57
2022-09-07T23:27:18.859Z,77.56
2022-09-07T23:29:50.019Z,77.83
2022-09-07T23:32:19.038Z,77.99
2022-09-07T23:34:49.224Z,78.55
2022-09-07T23:37:17.858Z,77.24
2022-09-07T23:39:47.541Z,76.80
2022-09-07T23:42:19.781Z,76.81
2022-09-07T23:44:52.808Z,76.79
2022-09-07T23:47:21.835Z,76.35
2022-09-07T23:49:51.180Z,76.14
2022-09-07T23:52:19.888Z,76.45
2022-09-07T23:54:49.444Z,75.99
2022-09-07T23:57:18.814Z,75.88
2022-09-07T23:59:48.554Z,76.08
